createdAt,value
2018-10-03T00:03:54.728Z,11.20
2018-10-03T00:08:57.237Z,11.20
2018-10-03T00:13:59.760Z,11.20
2018-10-03T00:19:02.312Z,11.20
2018-10-03T00:24:04.852Z,11.20
2018-10-03T00:29:07.381Z,11.20
2018-10-03T00:34:09.915Z,11.10
2018-10-03T00:39:12.435Z,11.20
2018-10-03T00:44:14.954Z,11.30
2018-10-03T00:49:17.488Z,11.30
2018-10-03T00:54:20.028Z,11.20
2018-10-03T00:59:22.559Z,12.10
2018-10-03T01:04:25.159Z,11.30
2018-10-03T01:09:27.698Z,11.40
2018-10-03T01:14:30.195Z,11.40
2018-10-03T01:19:32.705Z,11.50
2018-10-03T01:24:35.275Z,11.60
2018-10-03T01:29:37.824Z,11.60
2018-10-03T01:34:40.331Z,11.60
2018-10-03T01:39:43.417Z,11.70
2018-10-03T01:44:45.991Z,11.70
2018-10-03T01:49:48.528Z,11.70
2018-10-03T01:54:51.091Z,11.60
2018-10-03T01:59:54.280Z,11.60
2018-10-03T02:04:56.847Z,11.60
2018-10-03T02:09:59.499Z,11.60
2018-10-03T02:15:02.036Z,11.70
2018-10-03T02:20:05.334Z,11.60
2018-10-03T02:25:07.848Z,11.50
2018-10-03T02:30:10.391Z,11.60
2018-10-03T02:35:12.893Z,11.50
2018-10-03T02:40:15.479Z,11.50
2018-10-03T02:45:19.963Z,11.40
2018-10-03T02:50:22.484Z,11.40
2018-10-03T02:55:25.018Z,11.60
2018-10-03T03:00:27.563Z,11.70
2018-10-03T03:05:30.071Z,11.70
2018-10-03T03:10:32.659Z,11.70
2018-10-03T03:15:35.251Z,11.80
2018-10-03T03:20:37.783Z,11.70
2018-10-03T03:25:40.415Z,11.70
2018-10-03T03:30:42.956Z,11.60
2018-10-03T03:35:45.487Z,11.70
2018-10-03T03:40:48.028Z,11.70
2018-10-03T03:45:50.576Z,11.70
2018-10-03T03:50:53.103Z,11.70
2018-10-03T03:55:55.635Z,11.70
2018-10-03T04:00:58.160Z,11.70
2018-10-03T04:06:00.704Z,11.70
2018-10-03T04:11:03.236Z,11.70
2018-10-03T04:16:05.799Z,11.70
2018-10-03T04:21:08.355Z,11.70
2018-10-03T04:26:10.889Z,11.80
2018-10-03T04:31:13.409Z,11.80
2018-10-03T04:36:15.935Z,11.80
2018-10-03T04:41:18.458Z,13.20
2018-10-03T04:46:21.407Z,11.90
2018-10-03T04:51:23.915Z,12.00
2018-10-03T04:56:26.416Z,11.80
2018-10-03T05:01:28.938Z,11.80
2018-10-03T05:06:31.466Z,11.80
2018-10-03T05:11:33.987Z,11.80
2018-10-03T05:16:36.512Z,11.90
2018-10-03T05:21:39.048Z,12.10
2018-10-03T05:26:41.571Z,12.10
2018-10-03T05:31:44.096Z,12.20
2018-10-03T05:36:46.623Z,12.20
2018-10-03T05:41:49.126Z,12.30
2018-10-03T05:46:51.656Z,12.30
2018-10-03T05:51:54.180Z,13.00
2018-10-03T05:56:56.738Z,12.40
2018-10-03T06:01:59.286Z,12.30
2018-10-03T06:07:03.898Z,12.30
2018-10-03T06:12:06.598Z,12.30
2018-10-03T06:17:09.115Z,12.30
2018-10-03T06:22:11.726Z,12.40
2018-10-03T06:27:14.248Z,12.30
2018-10-03T06:32:16.781Z,12.30
2018-10-03T06:37:19.344Z,12.30
2018-10-03T06:42:21.867Z,12.40
2018-10-03T06:47:24.400Z,12.40
2018-10-03T06:52:26.911Z,12.60
2018-10-03T06:57:29.514Z,12.50
2018-10-03T07:02:33.188Z,12.50
2018-10-03T07:07:36.411Z,12.50
2018-10-03T07:12:40.407Z,12.50
2018-10-03T07:17:42.944Z,12.60
2018-10-03T07:22:45.455Z,12.60
2018-10-03T07:27:47.992Z,12.50
2018-10-03T07:32:50.520Z,12.50
2018-10-03T07:37:53.060Z,12.40
2018-10-03T07:42:55.589Z,12.30
2018-10-03T07:47:58.223Z,12.20
2018-10-03T07:53:00.749Z,12.10
2018-10-03T07:58:03.343Z,12.50
2018-10-03T08:03:10.655Z,11.50
2018-10-03T08:08:13.291Z,11.30
2018-10-03T08:13:15.868Z,11.10
2018-10-03T08:18:18.411Z,11.20
2018-10-03T08:23:21.609Z,11.30
2018-10-03T08:28:25.549Z,11.60
2018-10-03T08:33:28.283Z,11.80
2018-10-03T08:38:30.881Z,12.00
2018-10-03T08:43:33.473Z,12.10
2018-10-03T08:48:36.705Z,12.90
2018-10-03T08:53:39.296Z,12.40
2018-10-03T08:58:41.860Z,12.50
2018-10-03T09:03:44.420Z,12.60
2018-10-03T09:08:47.000Z,12.70
2018-10-03T09:13:49.591Z,12.80
2018-10-03T09:18:52.147Z,12.80
2018-10-03T09:23:55.375Z,12.90
2018-10-03T09:28:57.925Z,13.20
2018-10-03T09:34:00.510Z,13.50
2018-10-03T09:39:04.404Z,14.00
2018-10-03T09:44:07.528Z,14.20
2018-10-03T09:49:10.133Z,14.60
2018-10-03T09:54:13.315Z,15.50
2018-10-03T09:59:15.847Z,14.60
2018-10-03T10:04:18.387Z,14.70
2018-10-03T10:09:20.931Z,15.30
2018-10-03T10:14:23.483Z,15.90
2018-10-03T10:19:26.046Z,15.90
2018-10-03T10:24:29.196Z,15.70
2018-10-03T10:29:32.320Z,15.30
2018-10-03T10:34:34.880Z,15.70
2018-10-03T10:39:37.426Z,16.20
2018-10-03T10:44:40.015Z,16.60
2018-10-03T10:49:42.603Z,17.00
2018-10-03T10:54:45.516Z,18.30
2018-10-03T10:59:48.115Z,18.30
2018-10-03T11:04:50.563Z,18.50
2018-10-03T11:09:53.172Z,18.10
2018-10-03T11:14:55.798Z,17.80
2018-10-03T11:19:58.392Z,17.60
2018-10-03T11:25:01.078Z,18.60
2018-10-03T11:30:03.980Z,18.60
2018-10-03T11:35:06.563Z,17.90
2018-10-03T11:40:09.202Z,17.20
2018-10-03T11:45:11.769Z,16.90
2018-10-03T11:50:14.343Z,17.10
2018-10-03T11:55:16.896Z,17.20
2018-10-03T12:00:19.473Z,18.00
2018-10-03T12:05:21.994Z,18.80
2018-10-03T12:10:24.555Z,18.30
2018-10-03T12:15:27.096Z,17.00
2018-10-03T12:20:29.707Z,16.70
2018-10-03T12:25:33.356Z,16.80
2018-10-03T12:30:35.954Z,16.80
2018-10-03T12:35:38.503Z,16.80
2018-10-03T12:40:41.052Z,16.70
2018-10-03T12:45:43.620Z,16.50
2018-10-03T12:50:46.176Z,16.10
2018-10-03T12:55:48.711Z,17.20
2018-10-03T13:00:51.264Z,16.10
2018-10-03T13:05:53.804Z,16.10
2018-10-03T13:10:56.419Z,16.10
2018-10-03T13:15:58.963Z,16.00
2018-10-03T13:21:01.497Z,15.80
2018-10-03T13:26:04.089Z,15.70
2018-10-03T13:31:06.616Z,15.60
2018-10-03T13:36:09.183Z,15.40
2018-10-03T13:41:11.751Z,15.40
2018-10-03T13:46:14.297Z,15.50
2018-10-03T13:51:16.940Z,15.50
2018-10-03T13:56:20.443Z,15.50
2018-10-03T14:01:22.997Z,15.70
2018-10-03T14:06:25.591Z,15.70
2018-10-03T14:11:28.167Z,15.40
2018-10-03T14:16:30.766Z,15.30
2018-10-03T14:21:33.327Z,15.10
2018-10-03T14:26:35.887Z,14.90
2018-10-03T14:31:38.424Z,14.80
2018-10-03T14:36:40.970Z,14.90
2018-10-03T14:41:43.539Z,15.00
2018-10-03T14:46:46.145Z,15.10
2018-10-03T14:51:48.644Z,15.10
2018-10-03T14:56:52.027Z,15.10
2018-10-03T15:01:54.610Z,15.70
2018-10-03T15:06:57.169Z,17.70
2018-10-03T15:11:59.778Z,19.40
2018-10-03T15:17:02.336Z,20.30
2018-10-03T15:22:04.916Z,20.20
2018-10-03T15:27:07.541Z,20.80
2018-10-03T15:32:10.144Z,21.30
2018-10-03T15:37:12.722Z,20.30
2018-10-03T15:42:15.271Z,19.10
2018-10-03T15:47:17.836Z,19.60
2018-10-03T15:52:20.360Z,21.40
2018-10-03T15:57:22.911Z,21.10
2018-10-03T16:02:25.483Z,20.00
2018-10-03T16:07:28.031Z,19.00
2018-10-03T16:12:30.573Z,17.50
2018-10-03T16:17:33.142Z,16.60
2018-10-03T16:22:35.735Z,15.90
2018-10-03T16:27:38.302Z,15.60
2018-10-03T16:32:40.881Z,15.00
2018-10-03T16:37:44.199Z,14.70
2018-10-03T16:42:46.800Z,14.20
2018-10-03T16:47:49.417Z,13.80
2018-10-03T16:52:51.929Z,13.40
2018-10-03T16:57:54.447Z,13.10
2018-10-03T17:02:56.985Z,12.80
2018-10-03T17:07:59.803Z,12.40
2018-10-03T17:13:02.350Z,12.10
2018-10-03T17:18:04.906Z,11.90
2018-10-03T17:23:07.470Z,11.70
2018-10-03T17:28:10.034Z,11.40
2018-10-03T17:33:12.578Z,11.30
2018-10-03T17:38:15.212Z,11.20
2018-10-03T17:43:18.454Z,11.10
2018-10-03T17:48:21.030Z,11.10
2018-10-03T17:53:23.627Z,10.80
2018-10-03T17:58:26.237Z,10.70
2018-10-03T18:03:29.051Z,10.50
2018-10-03T18:08:31.720Z,10.20
2018-10-03T18:13:34.321Z,10.00
2018-10-03T18:18:36.859Z,9.80
2018-10-03T18:23:39.500Z,9.70
2018-10-03T18:28:42.118Z,9.60
2018-10-03T18:33:44.846Z,9.50
2018-10-03T18:38:47.977Z,9.70
2018-10-03T18:43:50.921Z,9.70
2018-10-03T18:48:53.821Z,9.80
2018-10-03T18:53:56.731Z,9.80
2018-10-03T18:58:59.781Z,9.90
2018-10-03T19:04:02.721Z,11.10
2018-10-03T19:09:07.773Z,9.80
2018-10-03T19:19:13.438Z,9.50
2018-10-03T19:24:16.398Z,9.50
2018-10-03T19:29:19.230Z,9.50
2018-10-03T19:34:22.162Z,9.50
2018-10-03T19:39:24.994Z,9.50
2018-10-03T19:44:27.794Z,9.50
2018-10-03T19:49:30.397Z,9.40
2018-10-03T19:54:32.967Z,9.20
2018-10-03T19:59:35.566Z,9.10
2018-10-03T20:09:40.744Z,8.80
2018-10-03T20:14:43.412Z,8.70
2018-10-03T20:19:46.004Z,8.70
2018-10-03T20:24:48.536Z,9.00
2018-10-03T20:29:51.095Z,8.60
2018-10-03T20:34:53.793Z,8.40
2018-10-03T20:39:56.344Z,8.40
2018-10-03T20:44:58.932Z,8.40
2018-10-03T20:50:01.513Z,8.40
2018-10-03T20:55:04.153Z,8.30
2018-10-03T21:00:06.720Z,8.30
2018-10-03T21:05:09.296Z,8.40
2018-10-03T21:10:11.840Z,8.40
2018-10-03T21:15:14.384Z,8.50
2018-10-03T21:20:16.939Z,8.40
2018-10-03T21:25:19.503Z,8.30
2018-10-03T21:30:22.047Z,8.40
2018-10-03T21:35:24.596Z,8.60
2018-10-03T21:40:27.138Z,8.80
2018-10-03T21:45:29.687Z,8.90
2018-10-03T21:50:32.241Z,9.00
2018-10-03T21:55:34.824Z,9.20
2018-10-03T22:00:43.079Z,9.30
2018-10-03T22:05:45.640Z,9.40
2018-10-03T22:10:48.265Z,9.50
2018-10-03T22:15:50.847Z,5.30
2018-10-03T22:20:53.461Z,9.60
2018-10-03T22:25:56.003Z,9.70
2018-10-03T22:30:58.558Z,9.60
2018-10-03T22:36:01.129Z,9.50
2018-10-03T22:41:03.666Z,9.40
2018-10-03T22:46:06.749Z,9.40
2018-10-03T22:51:09.291Z,9.30
2018-10-03T22:56:12.461Z,9.10
2018-10-03T23:01:15.143Z,9.00
2018-10-03T23:06:17.752Z,8.80
2018-10-03T23:11:20.251Z,8.70
2018-10-03T23:16:22.786Z,8.60
2018-10-03T23:21:25.330Z,8.60
2018-10-03T23:26:27.855Z,8.90
2018-10-03T23:31:30.379Z,9.10
2018-10-03T23:36:32.923Z,9.30
2018-10-03T23:41:35.504Z,9.50
2018-10-03T23:46:38.099Z,9.60
2018-10-03T23:51:40.595Z,9.70
2018-10-03T23:56:43.146Z,9.80
